createdAt,value
2022-10-29T00:02:06.301Z,99849.53
2022-10-29T00:04:32.935Z,99845.50
2022-10-29T00:07:02.535Z,99852.16
2022-10-29T00:09:29.311Z,99864.72
2022-10-29T00:11:56.301Z,99859.47
2022-10-29T00:14:23.180Z,99847.53
2022-10-29T00:16:50.053Z,99858.25
2022-10-29T00:19:16.718Z,99853.16
2022-10-29T00:21:43.679Z,99841.91
2022-10-29T00:24:11.159Z,99856.34
2022-10-29T00:26:37.774Z,99851.50
2022-10-29T00:29:04.797Z,99857.25
2022-10-29T00:31:31.753Z,99851.69
2022-10-29T00:33:58.740Z,99862.19
2022-10-29T00:36:28.052Z,99847.91
2022-10-29T00:38:55.522Z,99861.03
2022-10-29T00:41:26.925Z,99863.69
2022-10-29T00:44:19.401Z,99861.38
2022-10-29T00:46:52.779Z,99848.78
2022-10-29T00:49:20.419Z,99852.91
2022-10-29T00:51:48.602Z,99865.94
2022-10-29T00:54:16.456Z,99867.44
2022-10-29T00:56:49.241Z,99865.00
2022-10-29T00:59:17.276Z,99866.94
2022-10-29T01:01:45.926Z,99864.84
2022-10-29T01:04:12.935Z,99874.22
2022-10-29T01:06:41.288Z,99869.59
2022-10-29T01:09:08.136Z,99865.78
2022-10-29T01:11:41.033Z,99877.59
2022-10-29T01:14:10.379Z,99881.34
2022-10-29T01:16:45.935Z,99878.59
2022-10-29T01:19:37.004Z,99878.28
2022-10-29T01:22:31.000Z,99889.81
2022-10-29T01:25:10.651Z,99888.00
2022-10-29T01:28:00.085Z,99881.78
2022-10-29T01:31:08.079Z,99885.03
2022-10-29T01:33:45.002Z,99886.09
2022-10-29T01:36:29.879Z,99879.66
2022-10-29T01:39:05.114Z,99882.41
2022-10-29T01:41:53.145Z,99884.53
2022-10-29T01:44:41.662Z,99893.63
2022-10-29T01:47:20.317Z,99899.00
2022-10-29T01:49:53.136Z,99891.28
2022-10-29T01:52:21.903Z,99900.94
2022-10-29T01:54:48.767Z,99896.69
2022-10-29T01:57:34.816Z,99891.50
2022-10-29T02:00:21.408Z,99872.16
2022-10-29T02:03:05.691Z,99886.75
2022-10-29T02:05:37.491Z,99877.03
2022-10-29T02:08:12.636Z,99876.06
2022-10-29T02:10:41.047Z,99876.38
2022-10-29T02:13:10.929Z,99871.50
2022-10-29T02:15:51.346Z,99875.44
2022-10-29T02:18:18.095Z,99868.66
2022-10-29T02:20:45.892Z,99864.50
2022-10-29T02:23:13.391Z,99860.09
2022-10-29T02:25:39.860Z,99855.75
2022-10-29T02:28:06.415Z,99848.34
2022-10-29T02:30:33.107Z,99850.22
2022-10-29T02:32:59.610Z,99848.88
2022-10-29T02:35:26.135Z,99845.34
2022-10-29T02:37:52.459Z,99853.28
2022-10-29T02:40:18.951Z,99849.16
2022-10-29T02:42:45.250Z,99850.84
2022-10-29T02:45:11.568Z,99847.69
2022-10-29T02:47:37.972Z,99844.81
2022-10-29T02:50:04.718Z,99847.56
2022-10-29T02:52:31.074Z,99839.84
2022-10-29T02:54:57.521Z,99829.06
2022-10-29T02:57:23.925Z,99850.22
2022-10-29T02:59:50.292Z,99841.66
2022-10-29T03:02:17.242Z,99832.22
2022-10-29T03:04:43.696Z,99834.56
2022-10-29T03:07:10.178Z,99853.16
2022-10-29T03:09:36.578Z,99847.88
2022-10-29T03:12:02.999Z,99849.66
2022-10-29T03:14:29.306Z,99829.69
2022-10-29T03:16:55.811Z,99847.00
2022-10-29T03:19:22.164Z,99851.44
2022-10-29T03:21:48.573Z,99842.13
2022-10-29T03:24:14.913Z,99843.00
2022-10-29T03:26:41.257Z,99849.22
2022-10-29T03:29:07.708Z,99844.34
2022-10-29T03:31:34.012Z,99847.91
2022-10-29T03:34:00.449Z,99842.09
2022-10-29T03:36:26.880Z,99848.41
2022-10-29T03:38:53.236Z,99856.44
2022-10-29T03:41:19.569Z,99857.66
2022-10-29T03:43:46.043Z,99851.00
2022-10-29T03:46:12.365Z,99862.31
2022-10-29T03:48:38.644Z,99873.91
2022-10-29T03:51:06.162Z,99877.72
2022-10-29T03:53:34.646Z,99884.69
2022-10-29T03:56:01.600Z,99886.47
2022-10-29T03:58:28.214Z,99884.78
2022-10-29T04:01:02.631Z,99885.66
2022-10-29T04:03:30.955Z,99898.28
2022-10-29T04:05:59.137Z,99893.88
2022-10-29T04:08:25.441Z,99889.72
2022-10-29T04:10:52.198Z,99882.72
2022-10-29T04:13:19.276Z,99886.03
2022-10-29T04:15:46.473Z,99883.59
2022-10-29T04:18:13.319Z,99871.91
2022-10-29T04:21:29.244Z,99884.19
2022-10-29T04:29:01.414Z,99883.91
2022-10-29T04:31:27.744Z,99891.53
2022-10-29T04:33:54.474Z,99891.63
2022-10-29T04:36:20.862Z,99900.69
2022-10-29T04:38:47.169Z,99898.22
2022-10-29T04:41:13.565Z,99904.94
2022-10-29T04:43:39.880Z,99912.38
2022-10-29T04:46:06.391Z,99908.88
2022-10-29T04:48:32.900Z,99896.63
2022-10-29T04:50:59.243Z,99902.84
2022-10-29T04:53:25.617Z,99899.44
2022-10-29T04:55:52.165Z,99906.44
2022-10-29T04:58:19.572Z,99897.75
2022-10-29T05:00:46.510Z,99904.84
2022-10-29T05:03:13.240Z,99903.50
2022-10-29T05:05:39.950Z,99897.69
2022-10-29T05:08:07.138Z,99900.13
2022-10-29T05:10:38.848Z,99890.50
2022-10-29T05:13:11.333Z,99893.91
2022-10-29T05:15:38.730Z,99893.91
2022-10-29T05:18:06.263Z,99897.59
2022-10-29T05:20:33.097Z,99886.38
2022-10-29T05:23:10.597Z,99881.31
2022-10-29T05:25:39.547Z,99876.97
2022-10-29T05:28:15.142Z,99889.03
2022-10-29T05:30:41.775Z,99889.31
2022-10-29T05:33:14.739Z,99884.78
2022-10-29T05:35:41.393Z,99892.06
2022-10-29T05:38:09.986Z,99891.28
2022-10-29T05:40:36.354Z,99880.19
2022-10-29T05:43:03.156Z,99884.72
2022-10-29T05:45:29.780Z,99887.44
2022-10-29T05:48:02.149Z,99893.47
2022-10-29T05:50:29.787Z,99896.19
2022-10-29T05:53:00.868Z,99899.78
2022-10-29T05:55:28.354Z,99890.09
2022-10-29T05:58:02.862Z,99892.13
2022-10-29T06:00:31.655Z,99890.47
2022-10-29T06:02:58.304Z,99883.56
2022-10-29T06:05:25.215Z,99875.66
2022-10-29T06:07:56.179Z,99861.97
2022-10-29T06:10:24.393Z,99873.41
2022-10-29T06:12:50.928Z,99867.34
2022-10-29T06:15:17.966Z,99875.94
2022-10-29T06:17:45.612Z,99871.59
2022-10-29T06:20:14.489Z,99869.81
2022-10-29T06:25:26.236Z,99876.50
2022-10-29T06:28:02.537Z,99881.88
2022-10-29T06:30:34.436Z,99877.38
2022-10-29T06:33:01.677Z,99872.94
2022-10-29T06:35:28.758Z,99881.38
2022-10-29T06:37:55.650Z,99874.53
2022-10-29T06:40:23.079Z,99876.03
2022-10-29T06:42:49.900Z,99881.38
2022-10-29T06:45:17.042Z,99895.81
2022-10-29T06:47:45.807Z,99903.63
2022-10-29T06:50:13.288Z,99905.53
2022-10-29T06:52:39.596Z,99896.75
2022-10-29T06:55:07.268Z,99901.06
2022-10-29T06:57:33.864Z,99900.31
2022-10-29T07:00:05.484Z,99893.06
2022-10-29T07:02:34.934Z,99883.06
2022-10-29T07:05:01.310Z,99880.88
2022-10-29T07:07:30.389Z,99882.47
2022-10-29T07:09:56.930Z,99897.09
2022-10-29T07:12:23.601Z,99900.28
2022-10-29T07:14:49.899Z,99889.72
2022-10-29T07:17:16.248Z,99899.69
2022-10-29T07:19:42.654Z,99900.63
2022-10-29T07:22:09.044Z,99909.13
2022-10-29T07:24:35.420Z,99888.19
2022-10-29T07:27:01.709Z,99893.72
2022-10-29T07:29:28.597Z,99891.91
2022-10-29T07:31:54.882Z,99893.72
2022-10-29T07:34:21.165Z,99908.22
2022-10-29T07:36:47.565Z,99895.69
2022-10-29T07:39:14.105Z,99902.38
2022-10-29T07:41:40.484Z,99887.47
2022-10-29T07:44:06.802Z,99903.78
2022-10-29T07:46:33.306Z,99902.91
2022-10-29T07:48:59.646Z,99883.25
2022-10-29T07:51:26.053Z,99884.66
2022-10-29T07:53:52.735Z,99880.31
2022-10-29T07:56:19.050Z,99886.91
2022-10-29T07:58:45.510Z,99883.44
2022-10-29T08:01:11.993Z,99864.72
2022-10-29T08:03:38.467Z,99865.75
2022-10-29T08:06:04.979Z,99874.44
2022-10-29T08:08:31.413Z,99874.78
2022-10-29T08:11:02.439Z,99889.81
2022-10-29T08:13:29.150Z,99870.56
2022-10-29T08:15:55.779Z,99872.69
2022-10-29T08:18:22.485Z,99866.97
2022-10-29T08:20:48.911Z,99871.84
2022-10-29T08:23:15.577Z,99875.09
2022-10-29T08:25:42.425Z,99889.50
2022-10-29T08:28:11.953Z,99884.00
2022-10-29T08:30:39.094Z,99887.16
2022-10-29T08:33:06.110Z,99893.63
2022-10-29T08:35:33.294Z,99892.97
2022-10-29T08:37:59.886Z,99890.66
2022-10-29T08:40:47.132Z,99894.34
2022-10-29T08:43:47.610Z,99890.09
2022-10-29T08:46:29.186Z,99889.44
2022-10-29T08:49:03.291Z,99881.78
2022-10-29T08:51:38.541Z,99884.63
2022-10-29T08:56:55.119Z,99871.81
2022-10-29T08:59:23.997Z,99871.16
2022-10-29T09:01:51.484Z,99870.94
2022-10-29T09:04:33.391Z,99874.19
2022-10-29T09:07:37.217Z,99867.81
2022-10-29T09:10:16.265Z,99869.03
2022-10-29T09:13:07.173Z,99867.84
2022-10-29T09:16:09.337Z,99866.44
2022-10-29T09:18:53.439Z,99862.56
2022-10-29T09:21:32.835Z,99866.47
2022-10-29T09:24:13.441Z,99855.66
2022-10-29T09:26:56.900Z,99867.97
2022-10-29T09:29:46.465Z,99871.97
2022-10-29T09:32:24.836Z,99877.63
2022-10-29T09:34:55.523Z,99878.50
2022-10-29T09:37:57.141Z,99874.75
2022-10-29T09:40:37.649Z,99874.50
2022-10-29T09:43:17.985Z,99871.75
2022-10-29T09:45:54.302Z,99876.81
2022-10-29T09:48:29.916Z,99873.19
2022-10-29T09:51:20.119Z,99878.03
2022-10-29T09:53:46.565Z,99863.06
2022-10-29T09:56:12.942Z,99865.03
2022-10-29T09:58:43.011Z,99863.94
2022-10-29T10:01:09.622Z,99865.13
2022-10-29T10:03:41.420Z,99870.44
2022-10-29T10:06:09.909Z,99874.00
2022-10-29T10:09:14.209Z,99863.94
2022-10-29T10:11:43.741Z,99871.44
2022-10-29T10:14:24.713Z,99863.34
2022-10-29T10:16:58.451Z,99862.97
2022-10-29T10:19:27.688Z,99855.56
2022-10-29T10:21:59.234Z,99847.78
2022-10-29T10:24:32.721Z,99847.88
2022-10-29T10:26:59.757Z,99840.09
2022-10-29T10:29:27.068Z,99844.06
2022-10-29T10:31:56.174Z,99848.47
2022-10-29T10:34:27.195Z,99834.91
2022-10-29T10:37:19.193Z,99831.97
2022-10-29T10:40:02.067Z,99823.56
2022-10-29T10:42:32.006Z,99830.53
2022-10-29T10:45:05.266Z,99819.75
2022-10-29T10:47:36.693Z,99807.66
2022-10-29T10:50:18.625Z,99797.00
2022-10-29T10:52:46.569Z,99813.59
2022-10-29T10:55:26.183Z,99805.34
2022-10-29T10:58:04.932Z,99806.03
2022-10-29T11:01:00.193Z,99799.88
2022-10-29T11:03:35.138Z,99797.22
2022-10-29T11:06:16.416Z,99792.47
2022-10-29T11:08:53.088Z,99792.06
2022-10-29T11:11:25.427Z,99792.50
2022-10-29T11:13:52.364Z,99795.47
2022-10-29T11:16:27.150Z,99790.59
2022-10-29T11:19:23.411Z,99794.97
2022-10-29T11:22:24.977Z,99785.75
2022-10-29T11:24:59.390Z,99783.22
2022-10-29T11:27:45.677Z,99788.81
2022-10-29T11:30:17.147Z,99780.69
2022-10-29T11:33:02.409Z,99790.66
2022-10-29T11:35:41.387Z,99779.56
2022-10-29T11:38:20.210Z,99779.44
2022-10-29T11:41:11.978Z,99775.63
2022-10-29T11:43:38.413Z,99779.31
2022-10-29T11:46:43.981Z,99766.94
2022-10-29T11:49:22.159Z,99766.38
2022-10-29T11:51:57.725Z,99769.88
2022-10-29T11:54:45.334Z,99757.91
2022-10-29T11:57:17.208Z,99752.28
2022-10-29T12:00:01.866Z,99749.31
2022-10-29T12:03:03.124Z,99742.22
2022-10-29T12:05:35.259Z,99753.13
2022-10-29T12:08:32.442Z,99741.94
2022-10-29T12:11:21.883Z,99742.09
2022-10-29T12:14:05.901Z,99726.75
2022-10-29T12:16:49.590Z,99731.78
2022-10-29T12:19:22.034Z,99742.63
2022-10-29T12:21:57.062Z,99730.56
2022-10-29T12:24:38.388Z,99716.97
2022-10-29T12:27:23.414Z,99732.69
2022-10-29T12:30:11.388Z,99727.75
2022-10-29T12:32:41.305Z,99727.31
2022-10-29T12:35:15.477Z,99713.91
2022-10-29T12:38:09.926Z,99717.72
2022-10-29T12:40:41.562Z,99721.66
2022-10-29T12:43:23.939Z,99694.06
2022-10-29T12:46:21.328Z,99705.53
2022-10-29T12:48:59.252Z,99706.41
2022-10-29T12:51:48.698Z,99695.41
2022-10-29T12:54:22.644Z,99700.56
2022-10-29T12:56:50.480Z,99693.47
2022-10-29T12:59:36.898Z,99692.78
2022-10-29T13:02:25.374Z,99703.69
2022-10-29T13:05:06.959Z,99695.63
2022-10-29T13:07:34.466Z,99691.19
2022-10-29T13:10:22.683Z,99690.56
2022-10-29T13:13:01.081Z,99690.56
2022-10-29T13:15:36.924Z,99687.13
2022-10-29T13:18:23.504Z,99680.84
2022-10-29T13:20:52.579Z,99683.47
2022-10-29T13:23:21.721Z,99689.66
2022-10-29T13:25:52.311Z,99681.66
2022-10-29T13:28:18.630Z,99677.41
2022-10-29T13:30:47.538Z,99668.63
2022-10-29T13:33:27.076Z,99672.13
2022-10-29T13:36:22.485Z,99670.88
2022-10-29T13:39:05.538Z,99667.63
2022-10-29T13:41:41.502Z,99670.22
2022-10-29T13:44:13.523Z,99667.09
2022-10-29T13:47:04.156Z,99668.09
2022-10-29T13:49:51.083Z,99672.50
2022-10-29T13:52:24.724Z,99664.91
2022-10-29T13:55:05.933Z,99655.97
2022-10-29T13:57:38.047Z,99660.66
2022-10-29T14:00:12.768Z,99665.88
2022-10-29T14:02:42.470Z,99664.19
2022-10-29T14:05:11.763Z,99673.28
2022-10-29T14:08:02.476Z,99669.00
2022-10-29T14:10:36.879Z,99663.72
2022-10-29T14:13:34.415Z,99665.56
2022-10-29T14:16:06.486Z,99662.88
2022-10-29T14:18:46.081Z,99667.38
2022-10-29T14:21:19.254Z,99666.25
2022-10-29T14:24:03.641Z,99664.28
2022-10-29T14:26:32.586Z,99661.31
2022-10-29T14:29:14.507Z,99661.75
2022-10-29T14:31:41.025Z,99669.38
2022-10-29T14:34:23.392Z,99659.00
2022-10-29T14:36:55.670Z,99656.78
2022-10-29T14:39:32.634Z,99667.28
2022-10-29T14:42:06.973Z,99663.53
2022-10-29T14:44:34.289Z,99664.50
2022-10-29T14:47:03.687Z,99660.84
2022-10-29T14:49:32.173Z,99659.94
2022-10-29T14:52:02.266Z,99656.75
2022-10-29T14:54:36.038Z,99661.75
2022-10-29T14:57:15.653Z,99659.31
2022-10-29T14:59:52.308Z,99660.06
2022-10-29T15:02:36.832Z,99663.06
2022-10-29T15:05:27.333Z,99666.19
2022-10-29T15:08:14.473Z,99660.69
2022-10-29T15:11:27.385Z,99666.84
2022-10-29T15:13:53.812Z,99659.53
2022-10-29T15:16:21.431Z,99660.44
2022-10-29T15:18:54.045Z,99664.72
2022-10-29T15:21:26.805Z,99665.72
2022-10-29T15:24:20.417Z,99661.44
2022-10-29T15:26:54.963Z,99668.22
2022-10-29T15:29:30.591Z,99662.63
2022-10-29T15:32:00.073Z,99667.84
2022-10-29T15:34:34.912Z,99661.53
2022-10-29T15:37:22.523Z,99678.25
2022-10-29T15:40:24.531Z,99679.69
2022-10-29T15:42:50.912Z,99673.38
2022-10-29T15:45:25.737Z,99675.66
2022-10-29T15:47:58.282Z,99677.91
2022-10-29T15:50:43.357Z,99676.22
2022-10-29T15:53:14.759Z,99672.78
2022-10-29T15:55:41.231Z,99675.75
2022-10-29T15:58:20.502Z,99673.44
2022-10-29T16:00:46.936Z,99677.25
2022-10-29T16:03:16.260Z,99686.22
2022-10-29T16:05:44.808Z,99679.06
2022-10-29T16:08:26.593Z,99676.56
2022-10-29T16:10:54.023Z,99670.81
2022-10-29T16:13:21.251Z,99666.47
2022-10-29T16:15:47.660Z,99661.28
2022-10-29T16:18:14.114Z,99665.66
2022-10-29T16:20:40.716Z,99665.22
2022-10-29T16:23:10.756Z,99661.00
2022-10-29T16:25:37.214Z,99674.75
2022-10-29T16:28:03.881Z,99657.63
2022-10-29T16:30:30.385Z,99655.41
2022-10-29T16:32:57.431Z,99665.34
2022-10-29T16:35:28.570Z,99662.00
2022-10-29T16:37:56.314Z,99659.22
2022-10-29T16:40:26.453Z,99660.03
2022-10-29T16:42:53.326Z,99664.53
2022-10-29T16:45:25.381Z,99661.88
2022-10-29T16:47:51.687Z,99658.91
2022-10-29T16:50:19.764Z,99662.13
2022-10-29T16:52:46.530Z,99661.97
2022-10-29T16:55:14.070Z,99661.16
2022-10-29T16:57:40.722Z,99670.53
2022-10-29T17:00:08.334Z,99667.44
2022-10-29T17:02:34.629Z,99671.91
2022-10-29T17:05:01.048Z,99667.81
2022-10-29T17:07:27.372Z,99670.88
2022-10-29T17:09:53.910Z,99669.84
2022-10-29T17:12:20.295Z,99667.72
2022-10-29T17:14:46.770Z,99670.75
2022-10-29T17:17:13.351Z,99672.81
2022-10-29T17:19:40.002Z,99678.78
2022-10-29T17:22:06.476Z,99676.94
2022-10-29T17:24:32.874Z,99688.31
2022-10-29T17:26:59.435Z,99684.03
2022-10-29T17:29:25.903Z,99691.69
2022-10-29T17:31:52.848Z,99694.16
2022-10-29T17:34:19.425Z,99689.63
2022-10-29T17:36:46.124Z,99689.88
2022-10-29T17:39:12.598Z,99697.13
2022-10-29T17:41:39.086Z,99694.34
2022-10-29T17:44:05.479Z,99694.41
2022-10-29T17:46:32.200Z,99700.81
2022-10-29T17:48:58.956Z,99702.84
2022-10-29T17:51:25.581Z,99697.88
2022-10-29T17:53:51.977Z,99709.47
2022-10-29T17:56:18.474Z,99695.38
2022-10-29T17:58:44.876Z,99695.75
2022-10-29T18:01:12.852Z,99693.03
2022-10-29T18:03:39.387Z,99685.56
2022-10-29T18:06:08.006Z,99701.50
2022-10-29T18:08:39.531Z,99697.50
2022-10-29T18:11:08.399Z,99703.06
2022-10-29T18:13:37.166Z,99706.69
2022-10-29T18:16:03.583Z,99702.75
2022-10-29T18:18:42.800Z,99706.34
2022-10-29T18:21:22.251Z,99711.88
2022-10-29T18:23:48.822Z,99708.63
2022-10-29T18:26:26.079Z,99719.13
2022-10-29T18:28:53.989Z,99707.81
2022-10-29T18:31:22.990Z,99710.81
2022-10-29T18:33:49.469Z,99724.34
2022-10-29T18:36:15.776Z,99717.72
2022-10-29T18:38:42.219Z,99713.72
2022-10-29T18:41:08.951Z,99715.06
2022-10-29T18:43:35.550Z,99722.44
2022-10-29T18:46:05.190Z,99720.25
2022-10-29T18:48:36.014Z,99714.50
2022-10-29T18:51:11.367Z,99709.91
2022-10-29T18:53:38.920Z,99707.25
2022-10-29T18:56:13.230Z,99707.38
2022-10-29T18:58:40.428Z,99711.81
2022-10-29T19:01:12.482Z,99717.25
2022-10-29T19:03:39.666Z,99715.59
2022-10-29T19:06:08.674Z,99702.69
2022-10-29T19:08:37.283Z,99720.38
2022-10-29T19:11:05.535Z,99716.03
2022-10-29T19:13:32.231Z,99713.59
2022-10-29T19:16:04.135Z,99722.41
2022-10-29T19:18:31.500Z,99714.69
2022-10-29T19:21:06.546Z,99703.34
2022-10-29T19:23:33.397Z,99709.75
2022-10-29T19:26:14.565Z,99714.19
2022-10-29T19:28:41.833Z,99704.19
2022-10-29T19:31:11.194Z,99705.41
2022-10-29T19:33:38.122Z,99699.00
2022-10-29T19:36:07.000Z,99701.53
2022-10-29T19:38:34.169Z,99702.25
2022-10-29T19:41:01.335Z,99696.34
2022-10-29T19:43:28.458Z,99697.78
2022-10-29T19:45:55.627Z,99706.47
2022-10-29T19:48:22.822Z,99699.00
2022-10-29T19:50:53.253Z,99716.81
2022-10-29T19:53:20.155Z,99704.84
2022-10-29T19:55:46.608Z,99700.25
2022-10-29T19:58:13.025Z,99701.34
2022-10-29T20:00:39.496Z,99709.19
2022-10-29T20:03:05.782Z,99707.59
2022-10-29T20:07:59.109Z,99697.81
2022-10-29T20:10:25.896Z,99699.63
2022-10-29T20:12:55.179Z,99696.81
2022-10-29T20:15:22.202Z,99689.22
2022-10-29T20:17:48.652Z,99693.78
2022-10-29T20:20:17.169Z,99684.50
2022-10-29T20:22:44.106Z,99684.97
2022-10-29T20:25:10.476Z,99680.94
2022-10-29T20:27:36.888Z,99672.41
2022-10-29T20:30:04.332Z,99682.88
2022-10-29T20:32:31.050Z,99670.28
2022-10-29T20:34:57.791Z,99671.47
2022-10-29T20:37:24.136Z,99674.13
2022-10-29T20:39:50.554Z,99683.03
2022-10-29T20:42:16.946Z,99682.84
2022-10-29T20:44:43.465Z,99679.59
2022-10-29T20:47:10.161Z,99669.22
2022-10-29T20:49:36.530Z,99678.75
2022-10-29T20:52:02.988Z,99670.59
2022-10-29T20:54:29.758Z,99682.47
2022-10-29T20:56:56.047Z,99667.59
2022-10-29T20:59:22.712Z,99674.78
2022-10-29T21:01:49.186Z,99688.00
2022-10-29T21:04:15.668Z,99675.88
2022-10-29T21:06:42.140Z,99674.59
2022-10-29T21:09:08.435Z,99676.41
2022-10-29T21:11:34.793Z,99677.81
2022-10-29T21:14:01.175Z,99677.53
2022-10-29T21:16:28.918Z,99682.16
2022-10-29T21:19:01.019Z,99689.47
2022-10-29T21:21:29.164Z,99692.56
2022-10-29T21:23:57.133Z,99680.59
2022-10-29T21:26:26.611Z,99676.16
2022-10-29T21:28:54.601Z,99678.91
2022-10-29T21:31:22.845Z,99691.69
2022-10-29T21:33:52.539Z,99672.06
2022-10-29T21:36:19.823Z,99684.09
2022-10-29T21:38:46.462Z,99677.00
2022-10-29T21:41:12.812Z,99678.78
2022-10-29T21:43:39.772Z,99679.56
2022-10-29T21:46:06.619Z,99657.13
2022-10-29T21:48:33.258Z,99654.16
2022-10-29T21:51:12.814Z,99673.94
2022-10-29T21:53:40.365Z,99670.53
2022-10-29T21:56:09.818Z,99678.91
2022-10-29T21:58:36.177Z,99678.78
2022-10-29T22:01:14.013Z,99672.66
2022-10-29T22:03:42.357Z,99665.69
2022-10-29T22:06:17.140Z,99671.81
2022-10-29T22:08:44.099Z,99679.63
2022-10-29T22:11:12.158Z,99662.16
2022-10-29T22:13:38.954Z,99666.00
2022-10-29T22:16:07.344Z,99660.72
2022-10-29T22:18:33.900Z,99658.91
2022-10-29T22:21:13.849Z,99656.47
2022-10-29T22:23:45.623Z,99653.72
2022-10-29T22:26:13.831Z,99652.13
2022-10-29T22:28:40.360Z,99660.19
2022-10-29T22:31:07.196Z,99645.47
2022-10-29T22:33:34.529Z,99642.00
2022-10-29T22:36:08.705Z,99650.75
2022-10-29T22:38:35.953Z,99645.38
2022-10-29T22:41:10.200Z,99650.88
2022-10-29T22:43:37.074Z,99651.81
2022-10-29T22:46:04.506Z,99653.00
2022-10-29T22:48:31.383Z,99656.59
2022-10-29T22:51:12.821Z,99643.38
2022-10-29T22:53:39.437Z,99640.94
2022-10-29T22:56:06.365Z,99632.91
2022-10-29T22:58:33.275Z,99631.22
2022-10-29T23:01:07.397Z,99633.34
2022-10-29T23:03:34.559Z,99624.81
2022-10-29T23:06:03.123Z,99625.84
2022-10-29T23:08:30.109Z,99633.78
2022-10-29T23:10:56.756Z,99636.44
2022-10-29T23:13:23.063Z,99632.31
2022-10-29T23:15:51.641Z,99634.84
2022-10-29T23:18:19.010Z,99628.19
2022-10-29T23:20:45.739Z,99632.41
2022-10-29T23:23:13.296Z,99625.78
2022-10-29T23:25:40.633Z,99634.44
2022-10-29T23:28:07.750Z,99626.81
2022-10-29T23:30:34.072Z,99634.25
2022-10-29T23:33:01.243Z,99629.06
2022-10-29T23:35:28.591Z,99632.44
2022-10-29T23:37:55.424Z,99638.78
2022-10-29T23:40:22.094Z,99637.28
2022-10-29T23:42:48.755Z,99634.66
2022-10-29T23:45:15.099Z,99625.25
2022-10-29T23:47:41.382Z,99625.56
2022-10-29T23:50:08.829Z,99623.84
2022-10-29T23:52:35.168Z,99628.50
2022-10-29T23:55:01.449Z,99623.00
2022-10-29T23:57:27.892Z,99609.16
2022-10-29T23:59:54.173Z,99611.91
